sensor_id;sensor_type;location;lat;lon;timestamp;temperature;humidity
70336;SHT31;57756;47.408;18.940;2023-12-04T00:00:59;-3.96;92.40
70336;SHT31;57756;47.408;18.940;2023-12-04T00:03:25;-4.02;93.08
70336;SHT31;57756;47.408;18.940;2023-12-04T00:05:50;-3.99;92.75
70336;SHT31;57756;47.408;18.940;2023-12-04T00:08:16;-3.97;92.45
70336;SHT31;57756;47.408;18.940;2023-12-04T00:10:41;-4.07;92.74
70336;SHT31;57756;47.408;18.940;2023-12-04T00:13:07;-4.11;92.77
70336;SHT31;57756;47.408;18.940;2023-12-04T00:15:32;-4.17;93.31
70336;SHT31;57756;47.408;18.940;2023-12-04T00:17:58;-4.14;93.09
70336;SHT31;57756;47.408;18.940;2023-12-04T00:20:23;-4.14;93.07
70336;SHT31;57756;47.408;18.940;2023-12-04T00:22:49;-4.18;93.13
70336;SHT31;57756;47.408;18.940;2023-12-04T00:25:15;-4.21;92.90
70336;SHT31;57756;47.408;18.940;2023-12-04T00:27:40;-4.21;93.13
70336;SHT31;57756;47.408;18.940;2023-12-04T00:30:06;-4.18;93.18
70336;SHT31;57756;47.408;18.940;2023-12-04T00:32:32;-4.18;92.77
70336;SHT31;57756;47.408;18.940;2023-12-04T00:34:57;-4.17;92.75
70336;SHT31;57756;47.408;18.940;2023-12-04T00:37:23;-4.24;93.05
70336;SHT31;57756;47.408;18.940;2023-12-04T00:39:48;-4.21;93.13
70336;SHT31;57756;47.408;18.940;2023-12-04T00:42:14;-4.20;93.19
70336;SHT31;57756;47.408;18.940;2023-12-04T00:44:39;-4.23;92.97
70336;SHT31;57756;47.408;18.940;2023-12-04T00:47:05;-4.25;93.13
70336;SHT31;57756;47.408;18.940;2023-12-04T00:49:31;-4.24;93.07
70336;SHT31;57756;47.408;18.940;2023-12-04T00:51:57;-4.24;92.57
70336;SHT31;57756;47.408;18.940;2023-12-04T00:54:22;-4.28;92.57
70336;SHT31;57756;47.408;18.940;2023-12-04T00:56:48;-4.38;92.87
70336;SHT31;57756;47.408;18.940;2023-12-04T00:59:13;-4.40;93.05
70336;SHT31;57756;47.408;18.940;2023-12-04T01:01:39;-4.42;93.86
70336;SHT31;57756;47.408;18.940;2023-12-04T01:04:04;-4.41;93.56
70336;SHT31;57756;47.408;18.940;2023-12-04T01:06:30;-4.40;93.37
70336;SHT31;57756;47.408;18.940;2023-12-04T01:08:56;-4.40;93.19
70336;SHT31;57756;47.408;18.940;2023-12-04T01:11:22;-4.47;93.44
70336;SHT31;57756;47.408;18.940;2023-12-04T01:13:50;-4.48;93.32
70336;SHT31;57756;47.408;18.940;2023-12-04T01:16:16;-4.52;93.61
70336;SHT31;57756;47.408;18.940;2023-12-04T01:18:42;-4.51;93.85
70336;SHT31;57756;47.408;18.940;2023-12-04T01:21:09;-4.50;93.04
70336;SHT31;57756;47.408;18.940;2023-12-04T01:23:35;-4.48;93.11
70336;SHT31;57756;47.408;18.940;2023-12-04T01:26:02;-4.47;93.14
70336;SHT31;57756;47.408;18.940;2023-12-04T01:28:27;-4.47;93.26
70336;SHT31;57756;47.408;18.940;2023-12-04T01:30:53;-4.41;93.48
70336;SHT31;57756;47.408;18.940;2023-12-04T01:33:18;-4.41;93.14
70336;SHT31;57756;47.408;18.940;2023-12-04T01:35:44;-4.44;93.56
70336;SHT31;57756;47.408;18.940;2023-12-04T01:38:09;-4.54;94.11
70336;SHT31;57756;47.408;18.940;2023-12-04T01:40:35;-4.45;93.66
70336;SHT31;57756;47.408;18.940;2023-12-04T01:43:01;-4.45;94.01
70336;SHT31;57756;47.408;18.940;2023-12-04T01:45:26;-4.45;94.36
70336;SHT31;57756;47.408;18.940;2023-12-04T01:47:52;-4.48;93.79
70336;SHT31;57756;47.408;18.940;2023-12-04T01:50:18;-4.44;94.23
70336;SHT31;57756;47.408;18.940;2023-12-04T01:52:44;-4.48;93.58
70336;SHT31;57756;47.408;18.940;2023-12-04T01:55:10;-4.50;94.15
70336;SHT31;57756;47.408;18.940;2023-12-04T01:57:36;-4.50;94.27
70336;SHT31;57756;47.408;18.940;2023-12-04T02:00:02;-4.44;94.39
70336;SHT31;57756;47.408;18.940;2023-12-04T02:02:28;-4.41;94.10
70336;SHT31;57756;47.408;18.940;2023-12-04T02:04:55;-4.45;94.14
70336;SHT31;57756;47.408;18.940;2023-12-04T02:07:23;-4.45;93.73
70336;SHT31;57756;47.408;18.940;2023-12-04T02:09:48;-4.51;93.58
70336;SHT31;57756;47.408;18.940;2023-12-04T02:12:14;-4.55;93.04
70336;SHT31;57756;47.408;18.940;2023-12-04T02:14:40;-4.66;93.26
70336;SHT31;57756;47.408;18.940;2023-12-04T02:17:06;-4.65;93.41
70336;SHT31;57756;47.408;18.940;2023-12-04T02:19:33;-4.62;93.89
70336;SHT31;57756;47.408;18.940;2023-12-04T02:21:59;-4.64;94.22
70336;SHT31;57756;47.408;18.940;2023-12-04T02:24:24;-4.71;93.97
70336;SHT31;57756;47.408;18.940;2023-12-04T02:26:54;-4.88;93.92
70336;SHT31;57756;47.408;18.940;2023-12-04T02:29:26;-4.93;94.01
70336;SHT31;57756;47.408;18.940;2023-12-04T02:31:54;-4.89;94.07
70336;SHT31;57756;47.408;18.940;2023-12-04T02:34:20;-4.79;93.86
70336;SHT31;57756;47.408;18.940;2023-12-04T02:36:46;-4.78;93.93
70336;SHT31;57756;47.408;18.940;2023-12-04T02:39:13;-4.86;94.11
70336;SHT31;57756;47.408;18.940;2023-12-04T02:41:39;-4.95;94.21
70336;SHT31;57756;47.408;18.940;2023-12-04T02:44:04;-4.95;94.34
70336;SHT31;57756;47.408;18.940;2023-12-04T02:46:29;-4.88;94.23
70336;SHT31;57756;47.408;18.940;2023-12-04T02:48:55;-4.88;94.16
70336;SHT31;57756;47.408;18.940;2023-12-04T02:51:20;-4.92;93.86
70336;SHT31;57756;47.408;18.940;2023-12-04T02:53:46;-4.95;94.10
70336;SHT31;57756;47.408;18.940;2023-12-04T02:56:11;-5.03;94.13
70336;SHT31;57756;47.408;18.940;2023-12-04T02:58:37;-5.03;93.95
70336;SHT31;57756;47.408;18.940;2023-12-04T03:01:03;-5.11;94.05
70336;SHT31;57756;47.408;18.940;2023-12-04T03:03:28;-5.06;94.16
70336;SHT31;57756;47.408;18.940;2023-12-04T03:05:54;-5.09;94.46
70336;SHT31;57756;47.408;18.940;2023-12-04T03:08:20;-5.10;94.35
70336;SHT31;57756;47.408;18.940;2023-12-04T03:10:45;-5.11;94.14
70336;SHT31;57756;47.408;18.940;2023-12-04T03:13:11;-5.10;94.34
70336;SHT31;57756;47.408;18.940;2023-12-04T03:15:36;-5.07;94.26
70336;SHT31;57756;47.408;18.940;2023-12-04T03:18:02;-5.16;94.76
70336;SHT31;57756;47.408;18.940;2023-12-04T03:20:28;-5.24;95.35
70336;SHT31;57756;47.408;18.940;2023-12-04T03:22:53;-5.20;94.73
70336;SHT31;57756;47.408;18.940;2023-12-04T03:25:19;-5.28;94.31
70336;SHT31;57756;47.408;18.940;2023-12-04T03:27:44;-5.30;94.51
70336;SHT31;57756;47.408;18.940;2023-12-04T03:30:10;-5.26;94.73
70336;SHT31;57756;47.408;18.940;2023-12-04T03:32:35;-5.26;95.13
70336;SHT31;57756;47.408;18.940;2023-12-04T03:35:01;-5.26;95.32
70336;SHT31;57756;47.408;18.940;2023-12-04T03:37:27;-5.24;95.41
70336;SHT31;57756;47.408;18.940;2023-12-04T03:39:52;-5.28;95.03
70336;SHT31;57756;47.408;18.940;2023-12-04T03:42:18;-5.28;95.03
70336;SHT31;57756;47.408;18.940;2023-12-04T03:44:44;-5.30;94.78
70336;SHT31;57756;47.408;18.940;2023-12-04T03:47:09;-5.34;94.51
70336;SHT31;57756;47.408;18.940;2023-12-04T03:49:34;-5.35;94.62
70336;SHT31;57756;47.408;18.940;2023-12-04T03:52:00;-5.42;95.13
70336;SHT31;57756;47.408;18.940;2023-12-04T03:54:25;-5.41;94.81
70336;SHT31;57756;47.408;18.940;2023-12-04T03:56:51;-5.51;95.15
70336;SHT31;57756;47.408;18.940;2023-12-04T03:59:17;-5.45;95.32
70336;SHT31;57756;47.408;18.940;2023-12-04T04:01:42;-5.45;95.61
70336;SHT31;57756;47.408;18.940;2023-12-04T04:04:08;-5.47;95.33
70336;SHT31;57756;47.408;18.940;2023-12-04T04:06:33;-5.42;95.35
70336;SHT31;57756;47.408;18.940;2023-12-04T04:08:59;-5.41;95.05
70336;SHT31;57756;47.408;18.940;2023-12-04T04:11:24;-5.50;95.42
70336;SHT31;57756;47.408;18.940;2023-12-04T04:13:50;-5.51;95.60
70336;SHT31;57756;47.408;18.940;2023-12-04T04:16:16;-5.52;95.85
70336;SHT31;57756;47.408;18.940;2023-12-04T04:18:42;-5.50;95.85
70336;SHT31;57756;47.408;18.940;2023-12-04T04:21:09;-5.50;95.86
70336;SHT31;57756;47.408;18.940;2023-12-04T04:23:34;-5.51;96.11
70336;SHT31;57756;47.408;18.940;2023-12-04T04:26:00;-5.52;96.09
70336;SHT31;57756;47.408;18.940;2023-12-04T04:28:25;-5.48;96.13
70336;SHT31;57756;47.408;18.940;2023-12-04T04:30:51;-5.47;96.11
70336;SHT31;57756;47.408;18.940;2023-12-04T04:33:16;-5.42;95.93
70336;SHT31;57756;47.408;18.940;2023-12-04T04:35:42;-5.47;96.46
70336;SHT31;57756;47.408;18.940;2023-12-04T04:38:09;-5.51;96.73
70336;SHT31;57756;47.408;18.940;2023-12-04T04:40:34;-5.51;97.13
70336;SHT31;57756;47.408;18.940;2023-12-04T04:43:00;-5.50;97.11
70336;SHT31;57756;47.408;18.940;2023-12-04T04:45:25;-5.48;96.98
70336;SHT31;57756;47.408;18.940;2023-12-04T04:47:51;-5.50;97.39
70336;SHT31;57756;47.408;18.940;2023-12-04T04:50:16;-5.48;97.24
70336;SHT31;57756;47.408;18.940;2023-12-04T04:52:42;-5.50;96.96
70336;SHT31;57756;47.408;18.940;2023-12-04T04:55:07;-5.51;96.93
70336;SHT31;57756;47.408;18.940;2023-12-04T04:57:33;-5.50;96.72
70336;SHT31;57756;47.408;18.940;2023-12-04T04:59:59;-5.51;96.63
70336;SHT31;57756;47.408;18.940;2023-12-04T05:02:24;-5.54;96.62
70336;SHT31;57756;47.408;18.940;2023-12-04T05:04:50;-5.51;96.35
70336;SHT31;57756;47.408;18.940;2023-12-04T05:07:16;-5.52;96.59
70336;SHT31;57756;47.408;18.940;2023-12-04T05:09:41;-5.51;96.45
70336;SHT31;57756;47.408;18.940;2023-12-04T05:12:07;-5.59;96.41
70336;SHT31;57756;47.408;18.940;2023-12-04T05:14:32;-5.65;96.65
70336;SHT31;57756;47.408;18.940;2023-12-04T05:16:58;-5.57;96.75
70336;SHT31;57756;47.408;18.940;2023-12-04T05:19:23;-5.59;96.74
70336;SHT31;57756;47.408;18.940;2023-12-04T05:21:49;-5.61;96.46
70336;SHT31;57756;47.408;18.940;2023-12-04T05:24:14;-5.62;96.37
70336;SHT31;57756;47.408;18.940;2023-12-04T05:26:40;-5.74;96.54
70336;SHT31;57756;47.408;18.940;2023-12-04T05:29:06;-5.78;97.28
70336;SHT31;57756;47.408;18.940;2023-12-04T05:31:31;-5.83;97.47
70336;SHT31;57756;47.408;18.940;2023-12-04T05:33:56;-5.76;97.29
70336;SHT31;57756;47.408;18.940;2023-12-04T05:36:22;-5.75;96.93
70336;SHT31;57756;47.408;18.940;2023-12-04T05:38:47;-5.75;96.75
70336;SHT31;57756;47.408;18.940;2023-12-04T05:41:13;-5.72;96.68
70336;SHT31;57756;47.408;18.940;2023-12-04T05:43:38;-5.78;96.29
70336;SHT31;57756;47.408;18.940;2023-12-04T05:46:04;-5.82;96.25
70336;SHT31;57756;47.408;18.940;2023-12-04T05:48:30;-5.85;96.32
70336;SHT31;57756;47.408;18.940;2023-12-04T05:50:55;-5.85;96.46
70336;SHT31;57756;47.408;18.940;2023-12-04T05:53:21;-5.86;96.72
70336;SHT31;57756;47.408;18.940;2023-12-04T05:55:46;-5.86;96.88
70336;SHT31;57756;47.408;18.940;2023-12-04T05:58:12;-5.89;96.55
70336;SHT31;57756;47.408;18.940;2023-12-04T06:00:37;-5.90;96.26
70336;SHT31;57756;47.408;18.940;2023-12-04T06:03:03;-5.90;96.24
70336;SHT31;57756;47.408;18.940;2023-12-04T06:05:28;-5.93;96.46
70336;SHT31;57756;47.408;18.940;2023-12-04T06:07:54;-5.96;96.94
70336;SHT31;57756;47.408;18.940;2023-12-04T06:10:19;-5.95;96.67
70336;SHT31;57756;47.408;18.940;2023-12-04T06:12:45;-5.92;96.57
70336;SHT31;57756;47.408;18.940;2023-12-04T06:15:10;-5.89;96.31
70336;SHT31;57756;47.408;18.940;2023-12-04T06:17:36;-5.95;96.07
70336;SHT31;57756;47.408;18.940;2023-12-04T06:20:02;-5.92;96.04
70336;SHT31;57756;47.408;18.940;2023-12-04T06:22:27;-5.90;96.62
70336;SHT31;57756;47.408;18.940;2023-12-04T06:24:53;-5.90;96.65
70336;SHT31;57756;47.408;18.940;2023-12-04T06:27:19;-5.95;96.54
70336;SHT31;57756;47.408;18.940;2023-12-04T06:29:46;-5.93;96.74
70336;SHT31;57756;47.408;18.940;2023-12-04T06:32:12;-5.90;96.79
70336;SHT31;57756;47.408;18.940;2023-12-04T06:34:38;-5.89;96.98
70336;SHT31;57756;47.408;18.940;2023-12-04T06:37:11;-5.87;96.98
70336;SHT31;57756;47.408;18.940;2023-12-04T06:39:38;-5.82;96.76
70336;SHT31;57756;47.408;18.940;2023-12-04T06:42:07;-5.81;96.56
70336;SHT31;57756;47.408;18.940;2023-12-04T06:44:33;-5.83;97.10
70336;SHT31;57756;47.408;18.940;2023-12-04T06:47:02;-5.79;96.54
70336;SHT31;57756;47.408;18.940;2023-12-04T06:49:30;-5.75;96.45
70336;SHT31;57756;47.408;18.940;2023-12-04T06:51:56;-5.71;96.58
70336;SHT31;57756;47.408;18.940;2023-12-04T06:54:22;-5.61;96.94
70336;SHT31;57756;47.408;18.940;2023-12-04T06:56:47;-5.50;96.97
70336;SHT31;57756;47.408;18.940;2023-12-04T06:59:13;-5.39;96.90
70336;SHT31;57756;47.408;18.940;2023-12-04T07:01:38;-5.28;96.38
70336;SHT31;57756;47.408;18.940;2023-12-04T07:04:04;-5.19;96.35
70336;SHT31;57756;47.408;18.940;2023-12-04T07:06:35;-5.00;96.86
70336;SHT31;57756;47.408;18.940;2023-12-04T07:09:01;-4.80;96.64
70336;SHT31;57756;47.408;18.940;2023-12-04T07:11:27;-4.64;96.12
70336;SHT31;57756;47.408;18.940;2023-12-04T07:13:52;-4.42;95.84
70336;SHT31;57756;47.408;18.940;2023-12-04T07:16:18;-4.25;95.25
70336;SHT31;57756;47.408;18.940;2023-12-04T07:18:43;-4.07;95.30
70336;SHT31;57756;47.408;18.940;2023-12-04T07:21:09;-3.89;94.77
70336;SHT31;57756;47.408;18.940;2023-12-04T07:23:35;-3.69;95.14
70336;SHT31;57756;47.408;18.940;2023-12-04T07:26:00;-3.51;94.80
70336;SHT31;57756;47.408;18.940;2023-12-04T07:28:26;-3.40;94.20
70336;SHT31;57756;47.408;18.940;2023-12-04T07:30:53;-3.24;93.94
70336;SHT31;57756;47.408;18.940;2023-12-04T07:33:19;-3.13;93.26
70336;SHT31;57756;47.408;18.940;2023-12-04T07:35:45;-2.92;92.77
70336;SHT31;57756;47.408;18.940;2023-12-04T07:38:10;-2.75;91.99
70336;SHT31;57756;47.408;18.940;2023-12-04T07:40:36;-2.62;91.65
70336;SHT31;57756;47.408;18.940;2023-12-04T07:43:01;-2.45;91.13
70336;SHT31;57756;47.408;18.940;2023-12-04T07:45:27;-2.27;91.04
70336;SHT31;57756;47.408;18.940;2023-12-04T07:47:53;-2.14;90.25
70336;SHT31;57756;47.408;18.940;2023-12-04T07:50:19;-2.04;90.33
70336;SHT31;57756;47.408;18.940;2023-12-04T07:52:44;-1.87;90.09
70336;SHT31;57756;47.408;18.940;2023-12-04T07:55:10;-1.73;89.79
70336;SHT31;57756;47.408;18.940;2023-12-04T07:57:35;-1.78;89.27
70336;SHT31;57756;47.408;18.940;2023-12-04T08:00:01;-1.61;89.14
70336;SHT31;57756;47.408;18.940;2023-12-04T08:02:26;-1.45;88.31
70336;SHT31;57756;47.408;18.940;2023-12-04T08:04:52;-1.38;88.30
70336;SHT31;57756;47.408;18.940;2023-12-04T08:07:18;-1.18;89.00
70336;SHT31;57756;47.408;18.940;2023-12-04T08:09:44;-1.07;88.06
70336;SHT31;57756;47.408;18.940;2023-12-04T08:12:10;-0.93;87.61
70336;SHT31;57756;47.408;18.940;2023-12-04T08:14:35;-0.70;88.42
70336;SHT31;57756;47.408;18.940;2023-12-04T08:17:01;-0.52;86.97
70336;SHT31;57756;47.408;18.940;2023-12-04T08:19:26;-0.49;86.93
70336;SHT31;57756;47.408;18.940;2023-12-04T08:21:52;-0.48;86.94
70336;SHT31;57756;47.408;18.940;2023-12-04T08:24:17;-0.28;87.38
70336;SHT31;57756;47.408;18.940;2023-12-04T08:26:46;-0.11;87.40
70336;SHT31;57756;47.408;18.940;2023-12-04T08:29:12;0.06;86.09
70336;SHT31;57756;47.408;18.940;2023-12-04T08:31:37;0.06;85.67
70336;SHT31;57756;47.408;18.940;2023-12-04T08:34:03;0.17;85.83
70336;SHT31;57756;47.408;18.940;2023-12-04T08:36:29;0.40;86.50
70336;SHT31;57756;47.408;18.940;2023-12-04T08:38:55;0.65;85.46
70336;SHT31;57756;47.408;18.940;2023-12-04T08:41:20;1.03;85.90
70336;SHT31;57756;47.408;18.940;2023-12-04T08:43:46;1.16;84.32
70336;SHT31;57756;47.408;18.940;2023-12-04T08:46:13;1.31;82.98
70336;SHT31;57756;47.408;18.940;2023-12-04T08:48:42;1.38;82.29
70336;SHT31;57756;47.408;18.940;2023-12-04T08:51:08;1.65;81.94
70336;SHT31;57756;47.408;18.940;2023-12-04T08:53:36;1.96;83.05
70336;SHT31;57756;47.408;18.940;2023-12-04T08:56:02;2.16;82.20
70336;SHT31;57756;47.408;18.940;2023-12-04T08:58:28;2.41;81.09
70336;SHT31;57756;47.408;18.940;2023-12-04T09:00:53;2.68;80.68
70336;SHT31;57756;47.408;18.940;2023-12-04T09:03:19;2.55;79.15
70336;SHT31;57756;47.408;18.940;2023-12-04T09:05:46;2.68;77.92
70336;SHT31;57756;47.408;18.940;2023-12-04T09:08:11;2.66;77.82
70336;SHT31;57756;47.408;18.940;2023-12-04T09:10:37;2.74;79.41
70336;SHT31;57756;47.408;18.940;2023-12-04T09:13:02;2.69;77.70
70336;SHT31;57756;47.408;18.940;2023-12-04T09:15:28;2.96;78.01
70336;SHT31;57756;47.408;18.940;2023-12-04T09:17:53;3.12;78.21
70336;SHT31;57756;47.408;18.940;2023-12-04T09:20:19;3.48;77.63
70336;SHT31;57756;47.408;18.940;2023-12-04T09:22:44;3.68;76.86
70336;SHT31;57756;47.408;18.940;2023-12-04T09:25:10;3.68;75.62
70336;SHT31;57756;47.408;18.940;2023-12-04T09:27:36;3.70;75.44
70336;SHT31;57756;47.408;18.940;2023-12-04T09:30:01;3.45;74.54
70336;SHT31;57756;47.408;18.940;2023-12-04T09:32:27;3.33;75.67
70336;SHT31;57756;47.408;18.940;2023-12-04T09:34:52;3.27;76.35
70336;SHT31;57756;47.408;18.940;2023-12-04T09:37:18;3.34;75.92
70336;SHT31;57756;47.408;18.940;2023-12-04T09:39:43;3.33;76.11
70336;SHT31;57756;47.408;18.940;2023-12-04T09:42:09;3.53;76.22
70336;SHT31;57756;47.408;18.940;2023-12-04T09:44:36;3.68;76.03
70336;SHT31;57756;47.408;18.940;2023-12-04T09:47:03;3.28;75.62
70336;SHT31;57756;47.408;18.940;2023-12-04T09:49:29;3.30;77.54
70336;SHT31;57756;47.408;18.940;2023-12-04T09:51:57;3.60;77.36
70336;SHT31;57756;47.408;18.940;2023-12-04T09:54:24;3.54;76.65
70336;SHT31;57756;47.408;18.940;2023-12-04T09:56:49;3.64;76.11
70336;SHT31;57756;47.408;18.940;2023-12-04T09:59:16;3.79;76.17
70336;SHT31;57756;47.408;18.940;2023-12-04T10:01:43;4.06;76.48
70336;SHT31;57756;47.408;18.940;2023-12-04T10:04:09;4.03;75.11
70336;SHT31;57756;47.408;18.940;2023-12-04T10:06:37;4.40;74.68
70336;SHT31;57756;47.408;18.940;2023-12-04T10:09:03;4.50;75.30
70336;SHT31;57756;47.408;18.940;2023-12-04T10:11:29;4.51;74.42
70336;SHT31;57756;47.408;18.940;2023-12-04T10:13:55;4.99;73.44
70336;SHT31;57756;47.408;18.940;2023-12-04T10:16:35;4.20;71.97
70336;SHT31;57756;47.408;18.940;2023-12-04T10:19:19;3.88;72.16
70336;SHT31;57756;47.408;18.940;2023-12-04T10:21:46;4.06;73.62
70336;SHT31;57756;47.408;18.940;2023-12-04T10:24:35;4.23;72.24
70336;SHT31;57756;47.408;18.940;2023-12-04T10:27:06;3.98;72.10
70336;SHT31;57756;47.408;18.940;2023-12-04T10:29:44;3.95;72.76
70336;SHT31;57756;47.408;18.940;2023-12-04T10:32:11;4.01;72.90
70336;SHT31;57756;47.408;18.940;2023-12-04T10:34:37;4.29;71.76
70336;SHT31;57756;47.408;18.940;2023-12-04T10:37:04;4.81;71.44
70336;SHT31;57756;47.408;18.940;2023-12-04T10:39:30;4.71;71.73
70336;SHT31;57756;47.408;18.940;2023-12-04T10:42:02;4.93;70.63
70336;SHT31;57756;47.408;18.940;2023-12-04T10:44:30;4.61;70.59
70336;SHT31;57756;47.408;18.940;2023-12-04T10:46:59;3.89;71.49
70336;SHT31;57756;47.408;18.940;2023-12-04T10:49:27;3.55;72.69
70336;SHT31;57756;47.408;18.940;2023-12-04T10:51:55;3.38;73.56
70336;SHT31;57756;47.408;18.940;2023-12-04T10:54:22;3.47;74.11
70336;SHT31;57756;47.408;18.940;2023-12-04T10:56:49;3.10;74.27
70336;SHT31;57756;47.408;18.940;2023-12-04T10:59:21;2.88;75.11
70336;SHT31;57756;47.408;18.940;2023-12-04T11:01:50;2.75;75.84
70336;SHT31;57756;47.408;18.940;2023-12-04T11:04:19;2.54;75.95
70336;SHT31;57756;47.408;18.940;2023-12-04T11:06:49;2.42;77.01
70336;SHT31;57756;47.408;18.940;2023-12-04T11:09:17;2.37;77.18
70336;SHT31;57756;47.408;18.940;2023-12-04T11:11:48;2.40;76.71
70336;SHT31;57756;47.408;18.940;2023-12-04T11:14:17;2.31;77.18
70336;SHT31;57756;47.408;18.940;2023-12-04T11:16:51;2.31;78.06
70336;SHT31;57756;47.408;18.940;2023-12-04T11:19:32;2.16;77.44
70336;SHT31;57756;47.408;18.940;2023-12-04T11:22:00;2.09;78.26
70336;SHT31;57756;47.408;18.940;2023-12-04T11:24:27;2.05;78.16
70336;SHT31;57756;47.408;18.940;2023-12-04T11:26:53;1.99;77.92
70336;SHT31;57756;47.408;18.940;2023-12-04T11:29:19;2.06;79.06
70336;SHT31;57756;47.408;18.940;2023-12-04T11:31:45;1.98;79.26
70336;SHT31;57756;47.408;18.940;2023-12-04T11:34:12;1.93;80.14
70336;SHT31;57756;47.408;18.940;2023-12-04T11:36:38;1.93;79.29
70336;SHT31;57756;47.408;18.940;2023-12-04T11:39:08;1.83;79.63
70336;SHT31;57756;47.408;18.940;2023-12-04T11:41:36;1.85;79.33
70336;SHT31;57756;47.408;18.940;2023-12-04T11:44:02;1.82;79.25
70336;SHT31;57756;47.408;18.940;2023-12-04T11:46:29;1.92;79.32
70336;SHT31;57756;47.408;18.940;2023-12-04T11:49:26;1.81;79.72
70336;SHT31;57756;47.408;18.940;2023-12-04T11:51:54;1.85;79.92
70336;SHT31;57756;47.408;18.940;2023-12-04T11:54:21;1.92;79.14
70336;SHT31;57756;47.408;18.940;2023-12-04T11:59:24;1.92;79.14
70336;SHT31;57756;47.408;18.940;2023-12-04T12:01:50;1.75;80.32
70336;SHT31;57756;47.408;18.940;2023-12-04T12:04:17;1.82;79.87
70336;SHT31;57756;47.408;18.940;2023-12-04T12:06:44;1.89;80.03
70336;SHT31;57756;47.408;18.940;2023-12-04T12:09:10;1.85;79.47
70336;SHT31;57756;47.408;18.940;2023-12-04T12:11:36;1.82;80.45
70336;SHT31;57756;47.408;18.940;2023-12-04T12:14:01;1.75;80.71
70336;SHT31;57756;47.408;18.940;2023-12-04T12:16:27;1.73;79.91
70336;SHT31;57756;47.408;18.940;2023-12-04T12:18:53;1.73;80.56
70336;SHT31;57756;47.408;18.940;2023-12-04T12:21:19;1.79;80.18
70336;SHT31;57756;47.408;18.940;2023-12-04T12:23:44;1.73;80.78
70336;SHT31;57756;47.408;18.940;2023-12-04T12:26:11;1.76;79.90
70336;SHT31;57756;47.408;18.940;2023-12-04T12:28:36;1.75;79.97
70336;SHT31;57756;47.408;18.940;2023-12-04T12:31:03;1.71;79.82
70336;SHT31;57756;47.408;18.940;2023-12-04T12:33:29;1.63;80.15
70336;SHT31;57756;47.408;18.940;2023-12-04T12:35:56;1.66;80.93
70336;SHT31;57756;47.408;18.940;2023-12-04T12:38:22;1.73;81.25
70336;SHT31;57756;47.408;18.940;2023-12-04T12:40:48;1.73;80.42
70336;SHT31;57756;47.408;18.940;2023-12-04T12:43:13;1.68;80.63
70336;SHT31;57756;47.408;18.940;2023-12-04T12:45:43;1.62;81.40
70336;SHT31;57756;47.408;18.940;2023-12-04T12:48:16;1.63;81.82
70336;SHT31;57756;47.408;18.940;2023-12-04T12:50:42;1.54;81.83
70336;SHT31;57756;47.408;18.940;2023-12-04T12:53:10;1.54;81.20
70336;SHT31;57756;47.408;18.940;2023-12-04T12:55:40;1.54;81.41
70336;SHT31;57756;47.408;18.940;2023-12-04T12:58:06;1.52;81.06
70336;SHT31;57756;47.408;18.940;2023-12-04T13:00:34;1.47;81.50
70336;SHT31;57756;47.408;18.940;2023-12-04T13:02:59;1.40;81.88
70336;SHT31;57756;47.408;18.940;2023-12-04T13:05:26;1.41;81.71
70336;SHT31;57756;47.408;18.940;2023-12-04T13:07:51;1.35;82.44
70336;SHT31;57756;47.408;18.940;2023-12-04T13:10:17;1.33;82.21
70336;SHT31;57756;47.408;18.940;2023-12-04T13:12:43;1.28;82.53
70336;SHT31;57756;47.408;18.940;2023-12-04T13:15:08;1.31;82.22
70336;SHT31;57756;47.408;18.940;2023-12-04T13:17:36;1.28;82.72
70336;SHT31;57756;47.408;18.940;2023-12-04T13:20:01;1.24;82.92
70336;SHT31;57756;47.408;18.940;2023-12-04T13:22:29;1.17;82.98
70336;SHT31;57756;47.408;18.940;2023-12-04T13:24:55;1.22;83.03
70336;SHT31;57756;47.408;18.940;2023-12-04T13:27:20;1.20;82.83
70336;SHT31;57756;47.408;18.940;2023-12-04T13:29:46;1.20;82.88
70336;SHT31;57756;47.408;18.940;2023-12-04T13:32:15;1.19;82.78
70336;SHT31;57756;47.408;18.940;2023-12-04T13:34:41;1.10;83.17
70336;SHT31;57756;47.408;18.940;2023-12-04T13:37:08;1.08;83.43
70336;SHT31;57756;47.408;18.940;2023-12-04T13:39:33;1.12;83.97
70336;SHT31;57756;47.408;18.940;2023-12-04T13:42:13;1.12;83.93
70336;SHT31;57756;47.408;18.940;2023-12-04T13:44:59;1.08;84.01
70336;SHT31;57756;47.408;18.940;2023-12-04T13:47:24;1.06;84.47
70336;SHT31;57756;47.408;18.940;2023-12-04T13:49:50;1.04;84.28
70336;SHT31;57756;47.408;18.940;2023-12-04T13:52:15;0.99;84.88
70336;SHT31;57756;47.408;18.940;2023-12-04T13:54:45;1.08;84.40
70336;SHT31;57756;47.408;18.940;2023-12-04T13:57:13;0.97;84.35
70336;SHT31;57756;47.408;18.940;2023-12-04T13:59:54;1.04;84.33
70336;SHT31;57756;47.408;18.940;2023-12-04T14:02:21;0.96;84.64
70336;SHT31;57756;47.408;18.940;2023-12-04T14:04:46;0.82;84.72
70336;SHT31;57756;47.408;18.940;2023-12-04T14:07:14;0.82;84.45
70336;SHT31;57756;47.408;18.940;2023-12-04T14:09:39;0.82;84.62
70336;SHT31;57756;47.408;18.940;2023-12-04T14:12:06;0.77;84.57
70336;SHT31;57756;47.408;18.940;2023-12-04T14:14:31;0.70;85.31
70336;SHT31;57756;47.408;18.940;2023-12-04T14:16:58;0.76;84.79
70336;SHT31;57756;47.408;18.940;2023-12-04T14:19:24;0.68;85.10
70336;SHT31;57756;47.408;18.940;2023-12-04T14:21:50;0.58;85.59
70336;SHT31;57756;47.408;18.940;2023-12-04T14:24:15;0.61;85.43
70336;SHT31;57756;47.408;18.940;2023-12-04T14:26:41;0.58;85.64
70336;SHT31;57756;47.408;18.940;2023-12-04T14:29:07;0.51;85.68
70336;SHT31;57756;47.408;18.940;2023-12-04T14:31:34;0.45;86.66
70336;SHT31;57756;47.408;18.940;2023-12-04T14:33:59;0.45;85.79
70336;SHT31;57756;47.408;18.940;2023-12-04T14:36:25;0.48;85.97
70336;SHT31;57756;47.408;18.940;2023-12-04T14:38:52;0.54;85.69
70336;SHT31;57756;47.408;18.940;2023-12-04T14:41:18;0.44;85.94
70336;SHT31;57756;47.408;18.940;2023-12-04T14:43:44;0.41;86.09
70336;SHT31;57756;47.408;18.940;2023-12-04T14:46:09;0.49;85.93
70336;SHT31;57756;47.408;18.940;2023-12-04T14:48:37;0.42;86.04
70336;SHT31;57756;47.408;18.940;2023-12-04T14:51:03;0.36;86.39
70336;SHT31;57756;47.408;18.940;2023-12-04T14:53:29;0.40;86.16
70336;SHT31;57756;47.408;18.940;2023-12-04T14:56:01;0.34;86.57
70336;SHT31;57756;47.408;18.940;2023-12-04T14:58:45;0.38;86.49
70336;SHT31;57756;47.408;18.940;2023-12-04T15:01:11;0.27;86.47
70336;SHT31;57756;47.408;18.940;2023-12-04T15:03:55;0.27;86.81
70336;SHT31;57756;47.408;18.940;2023-12-04T15:06:36;0.25;86.93
70336;SHT31;57756;47.408;18.940;2023-12-04T15:09:17;0.25;86.80
70336;SHT31;57756;47.408;18.940;2023-12-04T15:11:51;0.25;86.84
70336;SHT31;57756;47.408;18.940;2023-12-04T15:14:35;0.22;87.05
70336;SHT31;57756;47.408;18.940;2023-12-04T15:17:19;0.24;87.13
70336;SHT31;57756;47.408;18.940;2023-12-04T15:20:13;0.22;87.17
70336;SHT31;57756;47.408;18.940;2023-12-04T15:22:39;0.28;87.22